메인 페이지
METAR-TAF:

METAR-TAF

공항 :

Iranshahr, 이란

위도: 27-12N, 경도: 060-42E, 고도: 591m

현재 날씨관측

예보는 41분 전, 08:00시(UTC)에 발표되었습니다.
남서6kt
온도 42°C
습도 17%
기압 1002 hPa
시정: 5000m
연무

METAR: OIZI 240800Z 23006KT 5000 HZ NSC 42/12 Q1002

시각: 13:11 (08:41 UTC)


TAF: 누락

4,000개 이상의 공항 관측 자료 및 예보 (METAR 및 TAF 보고).

지도상에서 검색 가능한 기상관측소가 노란 점과 빨간 점으로 표시되어 있습니다.

기상관측소 명을 보려면 표시 위로 마우스를 이동하세요.

날씨 관측과 예보를 보려면 클릭하세요.

지도 변경 : 확대하려면 엑스 표시가 있는 녹색 버튼, 축소하려면 빼기 표시가 있는 녹색 버튼, 다음 페이지의 지도를 보려면 녹색 화살표를 클릭하세요.


METAR-TAF: